Guilin, Guangxi

1:04 AM CST on August 24, 2014 (GMT +0800)
Liangjiang | Change Station
CLOSE
Current Station
Airport
Location: Guilin,
Elevation: 545 ft
Nearby Weather Stations

Elev 545 ft 25.33 °N, 110.30 °E | Updated 1 hour ago

Clear
Clear
77 °F
Feels Like 77 °F
N
4
Wind Variable Wind from WNW

Today
High -- | Low -- °F
--% Chance of Precip.
Yesterday
High -- | Low -- °F
Precip. -- in
6:16 AM 7:06 PM
Waning Crescent, 3% visible
Pressure 29.80 in
Visibility 3.7 miles
Clouds
Dew Point 75 °F
Humidity 94%
Rainfall 0.00 in
Snow Depth Not available.
UV Not available.
Pollen Not available.
Air Quality Not available.
Flu Activity Not available.
METAR ZGKL 231600Z 30002MPS 6000 NSC 25/24 Q1009 NOSIG

More Conditions Fewer Conditions

Pressure 29.80 in
Visibility 3.7 miles
Clouds
Dew Point 75 °F
Humidity 94%
Rainfall 0.00 in
Snow Depth Not available.
UV Not available.
Pollen Not available.
Air Quality Not available.
Flu Activity Not available.
METAR ZGKL 231600Z 30002MPS 6000 NSC 25/24 Q1009 NOSIG

More Conditions Fewer Conditions

10-Day Weather Forecast

Almanac

Astronomy

Aug. 24, 2014 Rise Set
Actual Time 6:16 AM CST 7:06 PM CST
Civil Twilight 5:52 AM CST 7:29 PM CST
Nautical Twilight 5:24 AM CST 7:57 PM CST
Astronomical Twilight 4:56 AM CST 8:25 PM CST
Moon 4:58 AM CST (8/24) 6:06 PM CST (8/24)
Length of Visible Light 13h 37m
Length of Day
12h 50m
Tomorrow will be 1m 21s shorter.
Waning Crescent, 3% of the Moon is Illuminated
Aug 23
Waning Crescent
Aug 25
New
Sep 2
First Quarter
Sep 8
Full
Sep 15
Last Quarter

Yesterday's Extremes

Country Highs Country Lows

Community

WunderPhotos

Upload Photos

1,746,529 photos uploaded!

WunderBlogs® & News

By Dr. Jeff Masters
Director of Meteorology, Weather Underground
By Kari Strenfel
Meteorologist, Weather Underground
By Christopher C. Burt
Weather Historian, Weather Underground
August 23, 2014
August 23, 2014
August 23, 2014

Nearby

Snow Depth

Not available.

Earthquake Activity

City Distance Mag. Time & Date
No recent earthquake activity has been reported nearby.
Minimum magnitude displayed is 2.5.

Coastal Water Temperatures

Place Temperature
No Stations Reporting

Nearby Weather Stations